createdAt,value
2018-10-16T00:00:27.578Z,7.9
2018-10-16T00:01:17.073Z,7.9
2018-10-16T00:02:07.703Z,7.9
2018-10-16T00:02:57.925Z,7.9
2018-10-16T00:03:46.681Z,7.8
2018-10-16T00:04:37.602Z,7.8
2018-10-16T00:05:27.393Z,7.8
2018-10-16T00:06:17.728Z,7.8
2018-10-16T00:07:08.044Z,7.8
2018-10-16T00:25:21.670Z,7.3
2018-10-16T00:26:11.427Z,7.3
2018-10-16T00:27:01.234Z,7.3
2018-10-16T00:27:51.012Z,7.3
2018-10-16T00:28:41.363Z,7.3
2018-10-16T00:29:31.719Z,7.3
2018-10-16T00:30:22.019Z,7.3
2018-10-16T00:31:11.817Z,7.2
2018-10-16T00:32:01.894Z,7.2
2018-10-16T00:32:51.759Z,7.2
2018-10-16T00:33:42.012Z,7.1
2018-10-16T00:34:32.045Z,7.1
2018-10-16T00:35:22.379Z,7.1
2018-10-16T00:36:12.137Z,7.1
2018-10-16T00:37:01.394Z,7.1
2018-10-16T00:37:52.281Z,7.1
2018-10-16T00:38:42.374Z,7.1
2018-10-16T00:39:32.094Z,7
2018-10-16T00:40:22.711Z,7
2018-10-16T00:41:11.967Z,6.9
2018-10-16T00:42:02.591Z,6.9
2018-10-16T00:42:52.655Z,6.9
2018-10-16T00:43:42.720Z,6.9
2018-10-16T00:44:32.505Z,6.9
2018-10-16T00:45:22.891Z,6.9
2018-10-16T00:46:12.073Z,6.9
2018-10-16T00:47:02.977Z,6.9
2018-10-16T00:47:53.015Z,6.8
2018-10-16T00:48:43.135Z,6.8
2018-10-16T00:49:33.188Z,6.8
2018-10-16T00:50:23.252Z,6.8
2018-10-16T00:51:13.013Z,6.8
2018-10-16T00:52:03.345Z,6.8
2018-10-16T00:52:53.405Z,6.8
2018-10-16T00:53:43.181Z,6.8
2018-10-16T00:54:33.258Z,6.8
2018-10-16T00:55:23.642Z,6.8
2018-10-16T00:56:13.677Z,6.8
2018-10-16T00:57:03.966Z,6.7
2018-10-16T00:57:53.809Z,6.7
2018-10-16T00:58:43.552Z,6.7
2018-10-16T00:59:33.334Z,6.6
2018-10-16T01:00:23.907Z,6.7
2018-10-16T01:01:14.250Z,6.6
2018-10-16T01:02:04.362Z,6.6
2018-10-16T01:02:54.164Z,6.6
2018-10-16T01:03:43.942Z,6.6
2018-10-16T01:04:34.287Z,6.6
2018-10-16T01:05:24.327Z,6.6
2018-10-16T01:06:14.406Z,6.5
2018-10-16T01:07:04.466Z,6.5
2018-10-16T01:07:54.499Z,6.5
2018-10-16T01:08:44.622Z,6.4
2018-10-16T01:09:34.064Z,6.5
2018-10-16T01:10:24.717Z,6.4
2018-10-16T01:11:14.488Z,6.4
2018-10-16T01:12:04.796Z,6.4
2018-10-16T01:12:54.632Z,6.4
2018-10-16T01:13:44.976Z,6.4
2018-10-16T01:14:34.746Z,6.3
2018-10-16T01:15:25.064Z,6.3
2018-10-16T01:16:14.849Z,6.3
2018-10-16T01:17:05.225Z,6.3
2018-10-16T01:17:55.491Z,6.3
2018-10-16T01:18:45.022Z,6.3
2018-10-16T01:19:34.822Z,6.3
2018-10-16T01:20:24.868Z,6.3
2018-10-16T01:21:15.482Z,6.2
2018-10-16T01:22:04.996Z,6.1
2018-10-16T01:22:55.618Z,6.1
2018-10-16T01:23:45.396Z,6.1
2018-10-16T01:24:35.456Z,6.1
2018-10-16T01:25:25.820Z,6.1
2018-10-16T01:26:15.568Z,6.1
2018-10-16T01:27:05.923Z,6.1
2018-10-16T01:27:56.284Z,6.1
2018-10-16T01:28:46.042Z,6
2018-10-16T01:29:35.831Z,6.1
2018-10-16T01:30:25.897Z,6.1
2018-10-16T01:31:16.275Z,6.1
2018-10-16T01:32:06.298Z,6.1
2018-10-16T01:32:56.620Z,6.1
2018-10-16T01:33:45.850Z,6
2018-10-16T01:34:36.487Z,6
2018-10-16T01:35:25.955Z,6
2018-10-16T01:36:16.892Z,6
2018-10-16T01:37:06.655Z,6
2018-10-16T01:37:56.162Z,5.9
2018-10-16T01:38:46.484Z,5.9
2018-10-16T01:39:36.577Z,5.9
2018-10-16T01:40:26.912Z,5.9
2018-10-16T01:41:16.721Z,5.8
2018-10-16T01:42:07.027Z,5.8
2018-10-16T01:42:57.117Z,5.8
2018-10-16T01:43:47.079Z,5.8
2018-10-16T01:44:36.653Z,5.8
2018-10-16T01:45:27.257Z,5.8
2018-10-16T01:46:16.782Z,5.8
2018-10-16T01:47:07.384Z,5.7
2018-10-16T01:47:57.412Z,5.7
2018-10-16T01:48:47.534Z,5.7
2018-10-16T01:49:37.304Z,5.7
2018-10-16T01:50:27.081Z,5.6
2018-10-16T01:51:17.706Z,5.6
2018-10-16T01:52:07.486Z,5.6
2018-10-16T01:52:57.847Z,5.6
2018-10-16T01:53:48.152Z,5.6
2018-10-16T01:54:37.678Z,5.6
2018-10-16T01:55:28.036Z,5.5
2018-10-16T01:56:17.531Z,5.5
2018-10-16T01:57:08.165Z,5.4
2018-10-16T01:57:58.204Z,5.5
2018-10-16T01:58:48.250Z,5.4
2018-10-16T01:59:38.071Z,5.4
2018-10-16T02:00:28.109Z,5.4
2018-10-16T02:01:18.439Z,5.4
2018-10-16T02:02:08.778Z,5.4
2018-10-16T02:02:58.011Z,5.4
2018-10-16T02:03:48.625Z,5.4
2018-10-16T02:04:38.698Z,5.4
2018-10-16T02:05:28.473Z,5.4
2018-10-16T02:06:18.564Z,5.4
2018-10-16T02:07:08.589Z,5.4
2018-10-16T02:07:58.936Z,5.4
2018-10-16T02:08:49.251Z,5.4
2018-10-16T02:09:39.075Z,5.4
2018-10-16T02:10:29.135Z,5.3
2018-10-16T02:11:19.188Z,5.3
2018-10-16T02:12:09.201Z,5.3
2018-10-16T02:12:59.306Z,5.3
2018-10-16T02:13:49.097Z,5.3
2018-10-16T02:14:39.270Z,5.3
2018-10-16T02:15:28.933Z,5.3
2018-10-16T02:16:19.565Z,5.3
2018-10-16T02:17:09.628Z,5.3
2018-10-16T02:17:59.408Z,5.3
2018-10-16T02:18:50.014Z,5.3
2018-10-16T02:19:40.062Z,5.3
2018-10-16T02:20:29.863Z,5.3
2018-10-16T02:21:19.930Z,5.2
2018-10-16T02:22:09.700Z,5.2
2018-10-16T02:23:00.004Z,5.2
2018-10-16T02:23:50.170Z,5.1
2018-10-16T02:24:39.595Z,5.2
2018-10-16T02:25:29.940Z,5.1
2018-10-16T02:26:20.300Z,5.1
2018-10-16T02:27:10.366Z,5.1
2018-10-16T02:28:00.422Z,5.1
2018-10-16T02:28:50.224Z,5.1
2018-10-16T02:29:40.537Z,5.1
2018-10-16T02:30:30.327Z,5.1
2018-10-16T02:31:20.671Z,5.1
2018-10-16T02:32:10.717Z,5.1
2018-10-16T02:33:00.506Z,5.1
2018-10-16T02:33:50.829Z,5.1
2018-10-16T02:34:40.627Z,5.1
2018-10-16T02:35:30.712Z,5.1
2018-10-16T02:36:21.017Z,5.1
2018-10-16T02:37:11.099Z,5.1
2018-10-16T02:38:00.876Z,5.1
2018-10-16T02:38:51.217Z,5.1
2018-10-16T02:39:41.009Z,5.1
2018-10-16T02:40:31.036Z,5
2018-10-16T02:41:21.409Z,5
2018-10-16T02:42:11.204Z,5
2018-10-16T02:43:01.555Z,5
2018-10-16T02:43:51.322Z,5
2018-10-16T02:44:41.646Z,5
2018-10-16T02:45:31.435Z,5
2018-10-16T02:46:21.755Z,5
2018-10-16T02:47:11.836Z,5
2018-10-16T02:48:01.878Z,4.9
2018-10-16T02:48:51.667Z,5
2018-10-16T02:49:42.034Z,4.9
2018-10-16T02:50:32.062Z,4.9
2018-10-16T02:51:22.131Z,4.9
2018-10-16T02:52:11.903Z,4.9
2018-10-16T02:53:01.974Z,4.9
2018-10-16T02:53:52.300Z,4.9
2018-10-16T02:54:42.106Z,4.9
2018-10-16T02:55:32.450Z,4.9
2018-10-16T02:56:22.260Z,4.9
2018-10-16T02:57:12.018Z,4.9
2018-10-16T02:58:02.646Z,4.8
2018-10-16T02:58:52.705Z,4.8
2018-10-16T02:59:42.997Z,4.8
2018-10-16T03:00:33.075Z,4.8
2018-10-16T03:01:22.586Z,4.8
2018-10-16T03:02:12.940Z,4.8
2018-10-16T03:03:03.008Z,4.8
2018-10-16T03:03:53.070Z,4.8
2018-10-16T03:04:42.852Z,4.7
2018-10-16T03:05:33.234Z,4.7
2018-10-16T03:06:23.260Z,4.7
2018-10-16T03:07:13.012Z,4.8
2018-10-16T03:08:03.392Z,4.7
2018-10-16T03:08:53.172Z,4.7
2018-10-16T03:09:42.639Z,4.7
2018-10-16T03:10:33.261Z,4.6
2018-10-16T03:11:23.602Z,4.6
2018-10-16T03:12:13.676Z,4.6
2018-10-16T03:13:03.452Z,4.6
2018-10-16T03:13:53.539Z,4.6
2018-10-16T03:14:43.839Z,4.5
2018-10-16T03:15:33.929Z,4.5
2018-10-16T03:16:23.716Z,4.4
2018-10-16T03:17:13.767Z,4.4
2018-10-16T03:18:04.111Z,4.4
2018-10-16T03:18:53.867Z,4.4
2018-10-16T03:19:43.636Z,4.4
2018-10-16T03:20:34.137Z,4.4
2018-10-16T03:21:23.774Z,4.3
2018-10-16T03:22:14.398Z,4.3
2018-10-16T03:23:04.469Z,4.3
2018-10-16T03:23:54.559Z,4.3
2018-10-16T03:24:44.326Z,4.3
2018-10-16T03:25:34.111Z,4.3
2018-10-16T03:26:24.716Z,4.2
2018-10-16T03:27:14.499Z,4.2
2018-10-16T03:28:04.841Z,4.2
2018-10-16T03:28:54.896Z,4.2
2018-10-16T03:29:44.995Z,4.2
2018-10-16T03:30:34.757Z,4.1
2018-10-16T03:31:24.803Z,4.1
2018-10-16T03:32:14.872Z,4.1
2018-10-16T03:33:05.212Z,4.1
2018-10-16T03:33:55.275Z,4.1
2018-10-16T03:34:45.291Z,4.1
2018-10-16T03:35:35.615Z,4.1
2018-10-16T03:36:24.906Z,4.1
2018-10-16T03:37:14.935Z,4.1
2018-10-16T03:38:04.725Z,4
2018-10-16T03:38:55.347Z,4
2018-10-16T03:39:45.678Z,4
2018-10-16T03:40:35.763Z,3.9
2018-10-16T03:41:25.527Z,4
2018-10-16T03:42:15.885Z,4
2018-10-16T03:43:05.915Z,3.9
2018-10-16T03:43:56.030Z,3.9
2018-10-16T03:44:45.779Z,3.9
2018-10-16T03:45:35.839Z,3.9
2018-10-16T03:46:25.337Z,3.9
2018-10-16T03:47:16.037Z,3.9
2018-10-16T03:48:06.287Z,3.9
2018-10-16T03:48:56.089Z,3.9
2018-10-16T03:49:46.140Z,3.9
2018-10-16T03:50:36.239Z,3.9
2018-10-16T03:51:26.270Z,3.9
2018-10-16T03:52:16.344Z,3.9
2018-10-16T03:53:06.661Z,3.9
2018-10-16T03:53:56.469Z,3.9
2018-10-16T03:54:46.769Z,3.8
2018-10-16T03:55:36.854Z,3.9
2018-10-16T03:56:26.924Z,3.8
2018-10-16T03:57:17.388Z,3.9
2018-10-16T03:58:07.045Z,3.8
2018-10-16T03:58:56.824Z,3.8
2018-10-16T03:59:47.183Z,3.8
2018-10-16T04:00:37.243Z,3.8
2018-10-16T04:01:27.291Z,3.8
2018-10-16T04:02:17.069Z,3.9
2018-10-16T04:03:07.394Z,3.9
2018-10-16T04:03:57.181Z,3.9
2018-10-16T04:04:47.236Z,3.9
2018-10-16T04:05:37.570Z,3.8
2018-10-16T04:06:27.791Z,3.9
2018-10-16T04:07:17.439Z,3.9
2018-10-16T04:08:07.781Z,3.9
2018-10-16T04:08:57.823Z,3.8
2018-10-16T04:09:47.628Z,3.8
2018-10-16T04:10:37.946Z,3.8
2018-10-16T04:11:28.278Z,3.8
2018-10-16T04:12:18.070Z,3.8
2018-10-16T04:13:08.170Z,3.8
2018-10-16T04:13:58.648Z,3.8
2018-10-16T04:14:48.271Z,3.8
2018-10-16T04:15:38.038Z,3.8
2018-10-16T04:16:27.822Z,3.8
2018-10-16T04:17:18.691Z,3.8
2018-10-16T04:18:08.264Z,3.8
2018-10-16T04:18:58.293Z,3.8
2018-10-16T04:19:48.643Z,3.8
2018-10-16T04:20:38.687Z,3.8
2018-10-16T04:21:28.781Z,3.8
2018-10-16T04:22:19.131Z,3.8
2018-10-16T04:23:08.333Z,3.7
2018-10-16T04:23:58.377Z,3.7
2018-10-16T04:24:48.995Z,3.8
2018-10-16T04:25:39.059Z,3.7
2018-10-16T04:26:28.847Z,3.8
2018-10-16T04:27:19.233Z,3.7
2018-10-16T04:28:09.297Z,3.8
2018-10-16T04:28:59.132Z,3.7
2018-10-16T04:29:49.371Z,3.7
2018-10-16T04:30:38.869Z,3.7
2018-10-16T04:31:29.474Z,3.7
2018-10-16T04:32:19.284Z,3.6
2018-10-16T04:33:09.065Z,3.6
2018-10-16T04:33:59.141Z,3.6
2018-10-16T04:34:49.192Z,3.6
2018-10-16T04:35:39.791Z,3.6
2018-10-16T04:36:29.856Z,3.6
2018-10-16T04:54:43.738Z,3.6
2018-10-16T04:55:33.809Z,3.6
2018-10-16T04:56:23.840Z,3.6
2018-10-16T04:57:14.186Z,3.6
2018-10-16T04:58:04.230Z,3.6
2018-10-16T04:58:53.753Z,3.6
2018-10-16T04:59:44.368Z,3.6
2018-10-16T05:00:34.447Z,3.7
2018-10-16T05:01:24.592Z,3.7
2018-10-16T05:02:14.369Z,3.8
2018-10-16T05:03:04.586Z,3.8
2018-10-16T05:03:54.504Z,3.8
2018-10-16T05:04:44.745Z,3.8
2018-10-16T05:05:34.241Z,3.8
2018-10-16T05:06:24.506Z,3.8
2018-10-16T05:07:14.748Z,3.8
2018-10-16T05:08:05.317Z,3.9
2018-10-16T05:08:54.756Z,3.9
2018-10-16T05:09:44.550Z,3.9
2018-10-16T05:10:35.202Z,4
2018-10-16T05:11:25.267Z,4
2018-10-16T05:12:14.997Z,4.1
2018-10-16T05:13:05.802Z,4.2
2018-10-16T05:13:55.396Z,4.3
2018-10-16T05:14:45.490Z,4.3
2018-10-16T05:15:35.509Z,4.4
2018-10-16T05:16:25.021Z,4.5
2018-10-16T05:17:15.400Z,4.6
2018-10-16T05:18:05.437Z,4.7
2018-10-16T05:18:55.393Z,4.8
2018-10-16T05:19:45.887Z,5
2018-10-16T05:20:35.879Z,5.1
2018-10-16T05:21:25.947Z,5.3
2018-10-16T05:22:16.031Z,5.4
2018-10-16T05:23:06.069Z,5.6
2018-10-16T05:23:55.844Z,5.8
2018-10-16T05:24:46.261Z,5.9
2018-10-16T05:25:36.266Z,6.1
2018-10-16T05:26:26.348Z,6.3
2018-10-16T05:27:16.123Z,6.5
2018-10-16T05:28:06.529Z,6.7
2018-10-16T05:28:56.841Z,6.9
2018-10-16T05:29:46.408Z,7.1
2018-10-16T05:30:36.614Z,7.4
2018-10-16T05:31:28.161Z,7.6
2018-10-16T05:32:16.789Z,7.9
2018-10-16T05:33:06.950Z,8.2
2018-10-16T05:33:56.617Z,8.5
2018-10-16T05:34:47.110Z,8.8
2018-10-16T05:35:37.051Z,9.1
2018-10-16T05:36:27.038Z,9.4
2018-10-16T05:37:16.828Z,9.8
2018-10-16T05:38:07.169Z,10.2
2018-10-16T05:38:57.574Z,10.6
2018-10-16T05:39:47.310Z,10.9
2018-10-16T05:40:36.817Z,11.3
2018-10-16T05:41:27.434Z,11.8
2018-10-16T05:42:17.192Z,12.1
2018-10-16T05:43:07.263Z,12.6
2018-10-16T05:43:57.605Z,13
2018-10-16T05:44:47.660Z,13.4
2018-10-16T05:45:37.723Z,13.9
2018-10-16T05:46:28.046Z,14.4
2018-10-16T05:47:18.108Z,14.9
2018-10-16T05:48:07.620Z,15.3
2018-10-16T05:48:58.083Z,15.8
2018-10-16T05:49:48.028Z,16.3
2018-10-16T05:50:38.101Z,16.8
2018-10-16T05:51:28.420Z,17.3
2018-10-16T05:52:17.678Z,17.8
2018-10-16T05:53:08.321Z,18.2
2018-10-16T05:54:48.430Z,19.1
2018-10-16T05:55:38.468Z,19.6
2018-10-16T05:56:28.525Z,20
2018-10-16T05:57:18.638Z,20.4
2018-10-16T05:58:08.404Z,20.8
2018-10-16T05:58:58.408Z,21.3
2018-10-16T05:59:48.476Z,21.6
2018-10-16T06:00:38.560Z,22
2018-10-16T06:01:28.843Z,22.4
2018-10-16T06:02:18.384Z,22.8
2018-10-16T06:03:09.015Z,23.2
2018-10-16T06:03:58.512Z,23.6
2018-10-16T06:04:48.865Z,23.9
2018-10-16T06:05:39.709Z,24.3
2018-10-16T06:06:29.258Z,24.7
2018-10-16T06:07:19.289Z,25
2018-10-16T06:08:08.825Z,25.4
2018-10-16T06:08:59.167Z,25.8
2018-10-16T06:09:49.512Z,26.1
2018-10-16T06:10:39.060Z,26.6
2018-10-16T06:11:29.067Z,27.1
2018-10-16T06:12:19.940Z,27.5
2018-10-16T06:13:09.477Z,28.1
2018-10-16T06:13:59.872Z,28.6
2018-10-16T06:14:49.623Z,29.2
2018-10-16T06:15:39.695Z,29.7
2018-10-16T06:16:30.002Z,30.3
2018-10-16T06:17:20.040Z,30.8
2018-10-16T06:18:09.826Z,31.4
2018-10-16T06:18:59.604Z,32
2018-10-16T06:19:49.677Z,32.6
2018-10-16T06:20:40.581Z,33.1
2018-10-16T06:21:30.071Z,33.8
2018-10-16T06:22:20.154Z,34.3
2018-10-16T06:23:10.180Z,34.8
2018-10-16T06:24:00.529Z,35.4
2018-10-16T06:24:50.589Z,36
2018-10-16T06:25:40.659Z,36.6
2018-10-16T06:26:31.333Z,37.1
2018-10-16T06:27:20.811Z,37.6
2018-10-16T06:28:10.884Z,38.3
2018-10-16T06:29:00.636Z,38.8
2018-10-16T06:29:50.990Z,39.3
2018-10-16T06:30:41.276Z,40
2018-10-16T06:31:30.819Z,40.6
2018-10-16T06:32:20.871Z,41.1
2018-10-16T06:33:11.378Z,41.6
2018-10-16T06:34:01.227Z,42.2
2018-10-16T06:34:50.873Z,42.7
2018-10-16T06:35:41.434Z,43.2
2018-10-16T06:36:31.601Z,43.8
2018-10-16T06:37:21.237Z,44.2
2018-10-16T06:38:11.288Z,44.7
2018-10-16T06:39:01.376Z,45.2
2018-10-16T06:39:51.708Z,45.8
2018-10-16T06:40:42.328Z,46.3
2018-10-16T06:41:31.817Z,46.8
2018-10-16T06:42:21.886Z,47.4
2018-10-16T06:43:11.953Z,47.8
2018-10-16T06:44:01.706Z,48.3
2018-10-16T06:44:52.061Z,48.8
2018-10-16T06:45:41.863Z,49.3
2018-10-16T06:46:32.867Z,49.8
2018-10-16T06:47:22.444Z,50.4
2018-10-16T06:48:13.157Z,50.9
2018-10-16T06:49:02.566Z,51.3
2018-10-16T06:49:52.160Z,51.6
2018-10-16T06:50:42.265Z,52.1
2018-10-16T06:51:32.300Z,52.6
2018-10-16T06:52:22.613Z,53.1
2018-10-16T06:53:13.003Z,53.5
2018-10-16T06:54:02.704Z,54
2018-10-16T06:54:52.910Z,54.5
2018-10-16T06:55:42.577Z,54.9
2018-10-16T06:56:32.928Z,55.3
2018-10-16T06:57:23.010Z,55.7
2018-10-16T06:58:12.467Z,56.2
2018-10-16T06:59:03.154Z,56.6
2018-10-16T06:59:53.157Z,57.1
2018-10-16T07:00:42.363Z,57.6
2018-10-16T07:01:33.313Z,58
2018-10-16T07:02:23.394Z,58.4
2018-10-16T07:03:13.440Z,58.8
2018-10-16T07:04:03.762Z,59.1
2018-10-16T07:04:53.542Z,59.6
2018-10-16T07:05:43.012Z,60
2018-10-16T07:06:33.310Z,60.3
2018-10-16T07:07:24.222Z,60.8
2018-10-16T07:08:13.479Z,61.3
2018-10-16T07:09:04.100Z,61.7
2018-10-16T07:09:53.901Z,62.6
2018-10-16T07:10:43.992Z,60.1
2018-10-16T07:11:33.762Z,57.9
2018-10-16T07:12:24.357Z,54.8
2018-10-16T07:13:14.164Z,48.7
2018-10-16T07:14:03.672Z,44.9
2018-10-16T07:14:55.143Z,42.9
2018-10-16T07:15:44.347Z,42.1
2018-10-16T07:16:34.417Z,42.1
2018-10-16T07:17:24.704Z,42.6
2018-10-16T07:18:14.232Z,43.6
2018-10-16T07:19:04.588Z,44.6
2018-10-16T07:19:54.068Z,45.9
2018-10-16T07:20:44.940Z,47.2
2018-10-16T07:21:34.989Z,48.5
2018-10-16T07:22:24.561Z,49.8
2018-10-16T07:23:14.735Z,50.9
2018-10-16T07:24:04.967Z,52.1
2018-10-16T07:24:55.031Z,53.2
2018-10-16T07:25:44.794Z,54.2
2018-10-16T07:26:35.131Z,55.3
2018-10-16T07:27:25.214Z,56.1
2018-10-16T07:28:15.273Z,57
2018-10-16T07:29:05.322Z,57.9
2018-10-16T07:29:55.366Z,58.8
2018-10-16T07:30:45.163Z,59.6
2018-10-16T07:31:35.535Z,60.3
2018-10-16T07:32:25.566Z,61.1
2018-10-16T07:33:15.628Z,61.8
2018-10-16T07:34:05.428Z,62.9
2018-10-16T07:34:55.756Z,62.9
2018-10-16T07:35:45.541Z,59.9
2018-10-16T07:36:35.887Z,58.3
2018-10-16T07:37:25.660Z,55.6
2018-10-16T07:38:17.274Z,52.2
2018-10-16T07:39:06.461Z,50.1
2018-10-16T07:39:55.874Z,49.6
2018-10-16T07:40:46.429Z,50.3
2018-10-16T07:41:35.675Z,51.4
2018-10-16T07:42:26.340Z,52.8
2018-10-16T07:43:16.094Z,54.1
2018-10-16T07:44:06.151Z,55.4
2018-10-16T07:44:56.757Z,56.7
2018-10-16T07:45:46.543Z,58.1
2018-10-16T07:46:36.928Z,59.3
2018-10-16T07:47:26.680Z,60.3
2018-10-16T07:48:16.921Z,61.8
2018-10-16T07:49:06.516Z,62.4
2018-10-16T07:49:57.111Z,61.7
2018-10-16T07:50:46.642Z,61.8
2018-10-16T07:51:37.017Z,60.2
2018-10-16T07:52:27.055Z,57.5
2018-10-16T07:53:17.402Z,55.1
2018-10-16T07:54:06.896Z,54.4
2018-10-16T07:54:57.271Z,55.7
2018-10-16T07:55:47.331Z,57.2
2018-10-16T07:56:37.351Z,58.4
2018-10-16T07:57:27.647Z,58.8
2018-10-16T07:58:17.192Z,58.6
2018-10-16T07:59:07.534Z,58
2018-10-16T07:59:57.604Z,57.6
2018-10-16T08:00:47.661Z,57.5
2018-10-16T08:01:37.114Z,57.9
2018-10-16T08:03:17.569Z,59
2018-10-16T08:04:07.626Z,59.3
2018-10-16T08:04:58.276Z,59.3
2018-10-16T08:05:48.078Z,59.4
2018-10-16T08:06:38.102Z,59.3
2018-10-16T08:07:27.294Z,59.4
2018-10-16T08:08:19.029Z,59.6
2018-10-16T08:09:08.289Z,59.9
2018-10-16T08:09:58.338Z,60.1
2018-10-16T08:10:47.839Z,60.3
2018-10-16T08:11:38.510Z,60.5
2018-10-16T08:12:27.937Z,60.6
2018-10-16T08:13:18.319Z,60.7
2018-10-16T08:14:08.318Z,60.9
2018-10-16T08:14:58.454Z,61.1
2018-10-16T08:15:48.788Z,61.3
2018-10-16T08:16:38.843Z,61.5
2018-10-16T08:17:28.933Z,61.6
2018-10-16T08:18:18.980Z,61.9
2018-10-16T08:19:08.729Z,62
2018-10-16T08:19:58.791Z,62.1
2018-10-16T08:20:48.563Z,62.2
2018-10-16T08:21:39.217Z,62.3
2018-10-16T08:22:28.963Z,62.5
2018-10-16T08:23:19.034Z,62.7
2018-10-16T08:24:09.123Z,62.7
2018-10-16T08:24:59.501Z,62.6
2018-10-16T08:25:49.272Z,62.8
2018-10-16T08:26:39.274Z,62.9
2018-10-16T08:27:28.887Z,63.1
2018-10-16T08:28:19.712Z,63.3
2018-10-16T08:29:09.491Z,63.6
2018-10-16T08:29:59.710Z,63.8
2018-10-16T08:30:49.604Z,63.9
2018-10-16T08:31:39.973Z,63.9
2018-10-16T08:32:29.983Z,64.1
2018-10-16T08:33:19.194Z,64.3
2018-10-16T08:34:10.491Z,64.4
2018-10-16T08:35:00.220Z,64.5
2018-10-16T08:35:50.132Z,64.7
2018-10-16T08:36:40.821Z,64.8
2018-10-16T08:37:30.373Z,65
2018-10-16T08:38:20.173Z,65.2
2018-10-16T08:39:10.243Z,65.3
2018-10-16T08:39:59.718Z,65.4
2018-10-16T08:40:50.887Z,65.6
2018-10-16T08:41:40.691Z,65.7
2018-10-16T08:42:30.486Z,65.9
2018-10-16T08:43:20.516Z,66
2018-10-16T08:44:10.884Z,66.1
2018-10-16T08:45:01.386Z,66.2
2018-10-16T08:45:50.720Z,66.1
2018-10-16T08:46:40.778Z,66.2
2018-10-16T08:47:31.432Z,66.3
2018-10-16T08:48:21.197Z,66.3
2018-10-16T08:49:11.253Z,66.4
2018-10-16T08:50:01.301Z,66.6
2018-10-16T08:50:51.384Z,66.8
2018-10-16T08:51:41.138Z,66.9
2018-10-16T08:52:30.957Z,67
2018-10-16T09:09:00.492Z,68.4
2018-10-16T09:09:50.821Z,68.4
2018-10-16T09:10:40.632Z,68.4
2018-10-16T09:11:30.663Z,68.3
2018-10-16T09:12:20.731Z,68.3
2018-10-16T09:13:11.732Z,68.6
2018-10-16T09:14:01.777Z,68.9
2018-10-16T09:14:50.913Z,69.1
2018-10-16T09:15:41.248Z,69.2
2018-10-16T09:16:31.034Z,69.3
2018-10-16T09:17:21.101Z,69.3
2018-10-16T09:18:11.158Z,69.6
2018-10-16T09:19:01.753Z,69.8
2018-10-16T09:19:51.255Z,69.8
2018-10-16T09:20:41.605Z,69.9
2018-10-16T09:21:31.665Z,70.1
2018-10-16T09:22:21.751Z,70.1
2018-10-16T09:23:11.545Z,70.1
2018-10-16T09:24:01.598Z,70.2
2018-10-16T09:24:52.077Z,70.4
2018-10-16T09:25:41.973Z,70.4
2018-10-16T09:26:32.048Z,70.3
2018-10-16T09:27:21.810Z,70.4
2018-10-16T09:28:11.880Z,70.4
2018-10-16T09:29:02.223Z,70.3
2018-10-16T09:29:52.013Z,70.1
2018-10-16T09:30:42.591Z,70.3
2018-10-16T09:31:32.110Z,70.4
2018-10-16T09:32:22.475Z,70.5
2018-10-16T09:33:12.252Z,70.6
2018-10-16T09:34:02.605Z,70.7
2018-10-16T09:34:52.370Z,70.8
2018-10-16T09:35:42.437Z,70.9
2018-10-16T09:36:32.770Z,71
2018-10-16T09:37:22.987Z,71.3
2018-10-16T09:38:12.953Z,71.3
2018-10-16T09:39:02.380Z,71.3
2018-10-16T09:39:53.043Z,71.3
2018-10-16T09:40:43.050Z,71.3
2018-10-16T09:41:32.880Z,71.4
2018-10-16T09:42:22.983Z,71.4
2018-10-16T09:43:13.023Z,71.4
2018-10-16T09:44:04.597Z,71.4
2018-10-16T09:44:53.461Z,71.6
2018-10-16T09:45:43.224Z,71.6
2018-10-16T09:46:33.228Z,71.6
2018-10-16T09:47:23.582Z,71.6
2018-10-16T09:48:13.042Z,71.8
2018-10-16T09:49:03.413Z,71.7
2018-10-16T09:49:53.482Z,71.6
2018-10-16T09:50:43.522Z,71.7
2018-10-16T09:51:33.891Z,71.8
2018-10-16T09:52:23.967Z,71.9
2018-10-16T09:53:14.015Z,71.9
2018-10-16T09:54:03.777Z,71.9
2018-10-16T09:54:54.386Z,72
2018-10-16T09:55:44.192Z,72.1
2018-10-16T09:56:33.964Z,72
2018-10-16T09:57:23.442Z,71.9
2018-10-16T09:58:14.094Z,71.8
2018-10-16T09:59:04.163Z,71.7
2018-10-16T09:59:54.163Z,71.8
2018-10-16T10:00:44.557Z,71.8
2018-10-16T10:01:34.322Z,71.7
2018-10-16T10:02:24.739Z,71.7
2018-10-16T10:03:13.888Z,71.7
2018-10-16T10:04:04.799Z,71.8
2018-10-16T10:04:54.816Z,71.8
2018-10-16T10:05:44.627Z,71.7
2018-10-16T10:06:34.696Z,71.6
2018-10-16T10:07:25.068Z,71.8
2018-10-16T10:08:14.827Z,71.8
2018-10-16T10:09:04.904Z,71.9
2018-10-16T10:09:54.948Z,71.9
2018-10-16T10:10:45.031Z,72.1
2018-10-16T10:11:35.591Z,72.1
2018-10-16T10:12:25.133Z,72.1
2018-10-16T10:13:15.479Z,72.3
2018-10-16T10:14:05.547Z,72.4
2018-10-16T10:14:55.306Z,72.3
2018-10-16T10:15:45.399Z,72.3
2018-10-16T10:16:35.943Z,72.4
2018-10-16T10:17:25.777Z,72.4
2018-10-16T10:18:15.598Z,72.3
2018-10-16T10:19:05.352Z,72.3
2018-10-16T10:19:55.695Z,71.9
2018-10-16T10:20:46.043Z,71.8
2018-10-16T10:21:36.037Z,71.6
2018-10-16T10:22:26.158Z,71.4
2018-10-16T10:23:16.165Z,71.5
2018-10-16T10:24:06.263Z,71.6
2018-10-16T10:24:56.336Z,71.6
2018-10-16T10:25:46.142Z,71.8
2018-10-16T10:26:35.307Z,71.8
2018-10-16T10:27:26.239Z,71.8
2018-10-16T10:28:16.307Z,71.7
2018-10-16T10:29:06.667Z,71.7
2018-10-16T10:29:56.429Z,71.7
2018-10-16T10:30:46.227Z,71.8
2018-10-16T10:31:36.540Z,71.9
2018-10-16T10:32:26.908Z,72.1
2018-10-16T10:33:16.692Z,72.3
2018-10-16T10:34:06.737Z,72.3
2018-10-16T10:34:57.081Z,72.3
2018-10-16T10:35:47.161Z,72.3
2018-10-16T10:36:37.224Z,72.3
2018-10-16T10:37:26.969Z,72.4
2018-10-16T10:38:17.068Z,72.7
2018-10-16T10:39:07.083Z,72.8
2018-10-16T10:39:57.179Z,72.8
2018-10-16T10:40:47.214Z,72.6
2018-10-16T10:41:37.626Z,72.4
2018-10-16T10:42:27.690Z,72.4
2018-10-16T10:43:17.755Z,72.4
2018-10-16T10:44:07.508Z,72.4
2018-10-16T10:44:57.868Z,72.4
2018-10-16T10:45:47.732Z,72.4
2018-10-16T10:46:37.698Z,72.6
2018-10-16T10:47:28.037Z,72.8
2018-10-16T10:48:17.820Z,72.6
2018-10-16T10:49:07.896Z,72.8
2018-10-16T10:49:58.558Z,72.8
2018-10-16T10:50:49.695Z,72.8
2018-10-16T10:51:41.636Z,72.7
2018-10-16T10:52:28.114Z,72.7
2018-10-16T10:53:18.470Z,72.4
2018-10-16T10:54:08.524Z,72.5
2018-10-16T10:54:58.325Z,72.4
2018-10-16T10:55:48.672Z,72.3
2018-10-16T10:56:39.117Z,72.3
2018-10-16T10:57:28.784Z,72.3
2018-10-16T10:58:19.348Z,72.5
2018-10-16T10:59:08.687Z,72.6
2018-10-16T10:59:59.214Z,72.7
2018-10-16T11:00:49.094Z,72.8
2018-10-16T11:01:39.126Z,72.7
2018-10-16T11:02:29.181Z,72.6
2018-10-16T11:03:20.348Z,72.6
2018-10-16T11:04:08.909Z,72.5
2018-10-16T11:04:59.550Z,72.4
2018-10-16T11:05:49.429Z,72.2
2018-10-16T11:06:39.517Z,72.1
2018-10-16T11:07:29.490Z,72.1
2018-10-16T11:08:19.509Z,72.1
2018-10-16T11:09:10.752Z,72.1
2018-10-16T11:09:59.388Z,72.2
2018-10-16T11:10:49.782Z,72
2018-10-16T11:11:39.481Z,71.8
2018-10-16T11:12:29.875Z,71.6
2018-10-16T11:13:19.896Z,71.4
2018-10-16T11:14:09.704Z,71.3
2018-10-16T11:15:00.268Z,71.3
2018-10-16T11:15:50.146Z,71.4
2018-10-16T11:16:40.183Z,71.4
2018-10-16T11:17:29.965Z,71.5
2018-10-16T11:18:19.783Z,71.6
2018-10-16T11:19:10.417Z,71.4
2018-10-16T11:20:00.457Z,71.4
2018-10-16T11:20:50.495Z,71.4
2018-10-16T11:21:40.514Z,71.4
2018-10-16T11:22:30.326Z,71.4
2018-10-16T11:23:20.839Z,71.3
2018-10-16T11:24:10.739Z,71.2
2018-10-16T11:25:00.748Z,71
2018-10-16T11:25:50.828Z,71
2018-10-16T11:26:40.623Z,70.9
2018-10-16T11:27:30.690Z,70.9
2018-10-16T11:28:21.050Z,70.9
2018-10-16T11:29:10.795Z,70.9
2018-10-16T11:30:01.033Z,71.1
2018-10-16T11:30:50.653Z,71.2
2018-10-16T11:31:41.295Z,71.2
2018-10-16T11:32:31.345Z,71.1
2018-10-16T11:33:20.811Z,71.1
2018-10-16T11:34:11.487Z,71.1
2018-10-16T11:35:01.515Z,71.1
2018-10-16T11:35:51.594Z,70.9
2018-10-16T11:36:41.646Z,70.9
2018-10-16T11:37:31.700Z,70.9
2018-10-16T11:38:21.438Z,70.9
2018-10-16T11:39:12.548Z,70.9
2018-10-16T11:40:01.860Z,70.6
2018-10-16T11:40:51.360Z,70.4
2018-10-16T11:41:41.979Z,70.4
2018-10-16T11:42:32.032Z,70.4
2018-10-16T11:43:22.122Z,70.4
2018-10-16T11:44:11.595Z,70.3
2018-10-16T11:45:02.651Z,70.1
2018-10-16T11:45:52.911Z,69.9
2018-10-16T11:46:41.779Z,69.9
2018-10-16T11:47:32.422Z,69.8
2018-10-16T11:48:22.467Z,69.8
2018-10-16T11:49:12.537Z,69.9
2018-10-16T11:50:03.011Z,70
2018-10-16T11:50:52.722Z,70.1
2018-10-16T11:51:42.441Z,70.1
2018-10-16T11:52:32.525Z,70.3
2018-10-16T11:53:22.554Z,70.3
2018-10-16T11:54:12.925Z,70.3
2018-10-16T11:55:02.687Z,70
2018-10-16T11:55:53.198Z,69.8
2018-10-16T11:56:43.091Z,69.5
2018-10-16T11:57:32.883Z,69.6
2018-10-16T11:58:22.931Z,69.6
2018-10-16T11:59:13.793Z,69.5
2018-10-16T12:00:03.361Z,69.4
2018-10-16T12:00:53.396Z,69.3
2018-10-16T12:01:43.191Z,69.3
2018-10-16T12:02:33.195Z,69.2
2018-10-16T12:03:23.596Z,69.1
2018-10-16T12:04:13.358Z,68.9
2018-10-16T12:05:03.421Z,68.8
2018-10-16T12:05:54.233Z,68.7
2018-10-16T12:06:43.831Z,68.6
2018-10-16T12:07:33.899Z,68.5
2018-10-16T12:08:23.961Z,68.4
2018-10-16T12:09:14.013Z,68.5
2018-10-16T12:10:04.086Z,68.5
2018-10-16T12:10:54.786Z,68.3